Time;durP1;ratioP1;P1;durP2;ratioP2;P2;SDS_P1;SDS_P2;PMS_P1;PMS_P2;Temp;Humidity;BMP_temperature;BMP_pressure;BME280_temperature;BME280_humidity;BME280_pressure;Samples;Min_cycle;Max_cycle;Signal;HPM_P1;HPM_P2
2022/11/20 00:00:17;;;;;;;2.60;1.77;;;;;;;9.53;100.00;98573.81;5111943;28;20225;-58
2022/11/20 00:02:44;;;;;;;1.40;1.30;;;;;;;9.53;100.00;98575.56;5111891;28;20201;-58
2022/11/20 00:05:11;;;;;;;4.20;0.70;;;;;;;9.50;100.00;98553.66;5111919;28;20197;-58
2022/11/20 00:07:39;;;;;;;1.53;1.37;;;;;;;9.57;100.00;98561.66;5111670;28;20208;-58
2022/11/20 00:10:07;;;;;;;1.57;1.47;;;;;;;9.53;100.00;98550.06;5111937;28;20629;-58
2022/11/20 00:12:34;;;;;;;0.70;0.70;;;;;;;9.49;100.00;98546.13;5111973;28;20215;-64
2022/11/20 00:15:02;;;;;;;2.10;1.60;;;;;;;9.47;100.00;98530.13;5111709;28;20251;-58
2022/11/20 00:17:28;;;;;;;0.87;0.83;;;;;;;9.54;100.00;98531.28;5111787;27;20201;-64
2022/11/20 00:19:55;;;;;;;2.00;1.70;;;;;;;9.60;100.00;98538.47;5111760;27;20240;-64
2022/11/20 00:22:22;;;;;;;1.60;1.50;;;;;;;9.59;100.00;98534.28;5111582;28;20212;-64
2022/11/20 00:24:50;;;;;;;0.93;0.90;;;;;;;9.64;100.00;98546.69;5111495;28;20225;-58
2022/11/20 00:27:17;;;;;;;1.07;0.83;;;;;;;9.65;100.00;98538.91;5111535;28;20262;-58
2022/11/20 00:29:44;;;;;;;1.40;1.27;;;;;;;9.69;100.00;98535.19;5111297;28;20709;-64
2022/11/20 00:32:10;;;;;;;3.33;1.90;;;;;;;9.75;100.00;98539.81;5111279;28;20204;-64
2022/11/20 00:34:37;;;;;;;3.77;1.87;;;;;;;9.69;100.00;98540.31;5110998;27;20221;-58
2022/11/20 00:37:04;;;;;;;1.90;1.53;;;;;;;9.69;100.00;98545.41;5111565;28;20189;-58
2022/11/20 00:39:31;;;;;;;2.17;1.33;;;;;;;9.67;100.00;98537.06;5111295;28;20601;-64
2022/11/20 00:41:59;;;;;;;3.00;1.70;;;;;;;9.70;100.00;98528.34;5111264;28;20208;-58
2022/11/20 00:44:25;;;;;;;3.00;1.27;;;;;;;9.72;100.00;98524.75;5111042;28;20247;-58
2022/11/20 00:46:52;;;;;;;2.20;1.23;;;;;;;9.66;100.00;98520.13;5111122;28;20197;-58
2022/11/20 00:49:19;;;;;;;3.43;2.03;;;;;;;9.72;100.00;98531.59;5111312;28;20241;-64
2022/11/20 00:51:46;;;;;;;3.17;1.47;;;;;;;9.72;100.00;98519.63;5111224;28;20189;-64
2022/11/20 00:54:12;;;;;;;1.60;1.17;;;;;;;9.80;100.00;98520.78;5110812;28;20217;-58
2022/11/20 00:56:39;;;;;;;2.80;1.63;;;;;;;9.81;100.00;98537.72;5111131;28;20205;-63
2022/11/20 00:59:10;;;;;;;2.67;1.63;;;;;;;9.73;100.00;98531.47;5110836;28;20657;-63
2022/11/20 01:01:38;;;;;;;2.30;1.67;;;;;;;9.78;100.00;98522.66;5111049;28;20349;-58
2022/11/20 01:04:05;;;;;;;2.37;2.13;;;;;;;9.79;100.00;98524.25;5110888;28;20701;-63
2022/11/20 01:06:34;;;;;;;1.60;1.27;;;;;;;9.75;100.00;98514.28;5111468;28;20193;-58
2022/11/20 01:09:02;;;;;;;2.17;1.33;;;;;;;9.79;100.00;98524.25;5110799;28;20224;-63
2022/11/20 01:11:31;;;;;;;1.23;1.10;;;;;;;9.80;100.00;98530.97;5110761;28;20197;-64
2022/11/20 01:14:00;;;;;;;1.03;1.03;;;;;;;9.88;100.00;98526.09;5110859;28;20689;-58
2022/11/20 01:16:31;;;;;;;1.57;0.97;;;;;;;9.77;100.00;98518.47;5110538;28;20697;-63
2022/11/20 01:18:59;;;;;;;0.97;0.87;;;;;;;9.78;100.00;98507.34;5110883;28;20225;-61
2022/11/20 01:21:28;;;;;;;1.20;1.10;;;;;;;9.83;100.00;98525.63;5110408;28;20224;-58
2022/11/20 01:23:55;;;;;;;1.53;1.37;;;;;;;9.74;100.00;98533.09;5110650;28;20224;-63
2022/11/20 01:26:24;;;;;;;3.53;1.73;;;;;;;9.74;100.00;98528.00;5110302;28;20193;-64
2022/11/20 01:28:51;;;;;;;1.47;1.00;;;;;;;9.84;100.00;98524.72;5110434;28;20249;-58
2022/11/20 01:31:20;;;;;;;3.37;1.50;;;;;;;9.88;100.00;98521.00;5110577;28;20246;-64
2022/11/20 01:33:50;;;;;;;2.40;1.53;;;;;;;10.01;100.00;98519.09;5110143;28;20229;-64
2022/11/20 01:36:19;;;;;;;1.43;1.03;;;;;;;10.02;100.00;98500.28;5110350;28;20201;-58
2022/11/20 01:38:46;;;;;;;1.00;1.00;;;;;;;9.87;100.00;98491.28;5110375;28;20224;-63
2022/11/20 01:43:20;;;;;;;2.93;1.10;;;;;;;9.82;100.00;98506.97;5110167;28;20221;-64
2022/11/20 01:44:03;;;;;;;1.97;1.47;;;;;;;9.88;100.00;98490.34;5110271;28;20588;-64
2022/11/20 01:46:29;;;;;;;2.23;1.87;;;;;;;9.92;100.00;98479.78;5110172;28;20208;-64
2022/11/20 01:49:03;;;;;;;2.03;1.20;;;;;;;9.88;100.00;98472.47;5109568;28;20281;-59
2022/11/20 01:51:34;;;;;;;2.37;1.60;;;;;;;9.86;100.00;98446.25;5110159;28;20636;-64
2022/11/20 01:54:04;;;;;;;2.67;2.10;;;;;;;9.89;100.00;98458.78;5110688;28;20704;-64
2022/11/20 01:56:34;;;;;;;1.27;1.03;;;;;;;9.87;100.00;98460.66;5110127;28;20563;-63
2022/11/20 01:59:05;;;;;;;0.63;0.50;;;;;;;9.96;100.00;98457.38;5110106;28;20270;-58
2022/11/20 02:01:32;;;;;;;1.13;0.70;;;;;;;9.91;100.00;98465.38;5109961;28;20237;-63
2022/11/20 02:04:01;;;;;;;2.07;1.87;;;;;;;9.98;100.00;98465.72;5110438;28;20217;-64
2022/11/20 02:06:31;;;;;;;2.67;1.67;;;;;;;9.91;100.00;98459.47;5109645;28;20197;-58
2022/11/20 02:08:58;;;;;;;2.20;1.63;;;;;;;9.87;100.00;98455.53;5110073;28;20217;-64
2022/11/20 02:11:25;;;;;;;3.60;1.73;;;;;;;9.97;100.00;98464.09;5109896;28;20201;-64
2022/11/20 02:13:51;;;;;;;1.40;1.20;;;;;;;9.89;100.00;98454.50;5109951;28;20221;-64
2022/11/20 02:16:25;;;;;;;2.53;1.13;;;;;;;9.90;100.00;98455.31;5110114;28;20202;-64
2022/11/20 02:18:54;;;;;;;1.53;1.27;;;;;;;9.94;100.00;98441.34;5109894;28;20221;-64
2022/11/20 02:21:28;;;;;;;0.90;0.73;;;;;;;10.10;100.00;98446.84;5109894;28;20736;-58
2022/11/20 02:24:13;;;;;;;1.73;1.30;;;;;;;9.96;100.00;98424.16;5109744;28;20270;-58
2022/11/20 02:26:47;;;;;;;1.00;0.60;;;;;;;10.14;100.00;98438.00;5108766;28;20307;-58
2022/11/20 02:29:16;;;;;;;2.40;1.20;;;;;;;10.00;100.00;98435.75;5109924;28;20253;-64
2022/11/20 02:31:44;;;;;;;2.63;1.40;;;;;;;10.07;100.00;98444.56;5109810;28;20214;-64
2022/11/20 02:34:11;;;;;;;2.77;1.50;;;;;;;10.02;100.00;98444.09;5109621;28;20217;-58
2022/11/20 02:36:41;;;;;;;1.33;1.23;;;;;;;10.04;100.00;98442.25;5109750;28;20208;-64
2022/11/20 02:39:12;;;;;;;1.77;1.17;;;;;;;10.04;100.00;98441.44;5110184;28;20224;-58
2022/11/20 02:41:39;;;;;;;3.03;1.57;;;;;;;10.08;100.00;98428.28;5109711;28;20236;-64
2022/11/20 02:44:06;;;;;;;2.37;1.70;;;;;;;10.18;100.00;98436.00;5109803;28;20682;-59
2022/11/20 02:46:34;;;;;;;1.57;1.47;;;;;;;10.14;100.00;98434.63;5109585;28;20201;-64
2022/11/20 02:49:02;;;;;;;2.23;1.23;;;;;;;10.22;100.00;98428.91;5109665;28;20224;-59
2022/11/20 02:51:29;;;;;;;3.50;1.87;;;;;;;10.19;100.00;98446.09;5109685;28;20630;-58
2022/11/20 02:53:56;;;;;;;0.97;0.97;;;;;;;10.24;100.00;98432.13;5109709;28;20373;-58
2022/11/20 02:56:25;;;;;;;3.97;1.87;;;;;;;10.17;100.00;98450.53;5109685;28;20206;-63
2022/11/20 02:58:52;;;;;;;6.53;1.93;;;;;;;10.32;100.00;98463.03;5109804;28;20773;-58
2022/11/20 03:01:19;;;;;;;2.47;1.70;;;;;;;10.42;100.00;98453.69;5111225;28;20712;-58
2022/11/20 03:03:48;;;;;;;1.63;1.13;;;;;;;10.31;100.00;98439.22;5113421;27;20217;-58
2022/11/20 03:06:15;;;;;;;4.97;0.97;;;;;;;10.30;100.00;98437.63;5113026;28;20200;-58
2022/11/20 03:08:42;;;;;;;4.70;1.57;;;;;;;10.24;100.00;98442.34;5112997;28;20217;-64
2022/11/20 03:11:09;;;;;;;0.77;0.77;;;;;;;10.13;100.00;98450.91;5113033;28;20204;-64
2022/11/20 03:13:37;;;;;;;2.63;1.00;;;;;;;10.13;100.00;98461.94;5113322;27;20221;-58
2022/11/20 03:16:09;;;;;;;1.97;1.20;;;;;;;10.17;100.00;98458.19;5112980;28;20746;-64
2022/11/20 03:18:36;;;;;;;1.70;1.53;;;;;;;10.14;100.00;98453.31;5112861;27;20221;-63
2022/11/20 03:21:03;;;;;;;0.90;0.80;;;;;;;10.05;100.00;98448.16;5112952;28;20225;-64
2022/11/20 03:23:31;;;;;;;1.83;0.90;;;;;;;10.05;100.00;98469.41;5112814;28;20658;-64
2022/11/20 03:26:07;;;;;;;1.60;1.10;;;;;;;10.09;100.00;98486.09;5112803;28;20284;-59
2022/11/20 03:28:34;;;;;;;0.67;0.50;;;;;;;10.17;100.00;98493.94;5112839;28;20308;-64
2022/11/20 03:31:08;;;;;;;3.63;1.17;;;;;;;10.03;100.00;98496.78;5112782;28;20220;-60
2022/11/20 03:33:34;;;;;;;1.00;0.63;;;;;;;9.85;100.00;98519.47;5112561;28;20751;-58
2022/11/20 03:36:02;;;;;;;2.53;1.30;;;;;;;9.63;100.00;98535.69;5112548;28;20197;-58
2022/11/20 03:38:30;;;;;;;3.47;1.50;;;;;;;9.55;100.00;98525.25;5112633;28;20704;-58
2022/11/20 03:40:59;;;;;;;1.63;1.00;;;;;;;9.26;100.00;98533.38;5112355;28;20229;-62
2022/11/20 03:43:26;;;;;;;1.03;0.73;;;;;;;9.37;100.00;98539.41;5112255;28;20228;-58
2022/11/20 03:45:53;;;;;;;1.87;1.30;;;;;;;9.15;100.00;98543.56;5112341;28;20265;-58
2022/11/20 03:48:21;;;;;;;1.07;0.97;;;;;;;9.25;100.00;98539.41;5112392;27;20213;-64
2022/11/20 03:50:48;;;;;;;1.47;1.23;;;;;;;8.91;100.00;98569.16;5112337;28;20270;-58
2022/11/20 03:53:15;;;;;;;1.37;1.27;;;;;;;8.89;100.00;98549.78;5111929;28;20646;-64
2022/11/20 03:55:42;;;;;;;1.67;1.23;;;;;;;8.82;100.00;98557.91;5112433;28;20209;-64
2022/11/20 03:58:10;;;;;;;0.90;0.90;;;;;;;8.82;100.00;98557.91;5112148;28;20221;-64
2022/11/20 04:00:36;;;;;;;1.20;1.10;;;;;;;8.79;100.00;98552.22;5112060;28;20221;-64
2022/11/20 04:03:03;;;;;;;1.53;1.43;;;;;;;8.90;100.00;98566.72;5112334;28;20228;-63
2022/11/20 04:05:34;;;;;;;0.60;0.60;;;;;;;8.81;100.00;98535.06;5112320;27;20642;-58
2022/11/20 04:08:01;;;;;;;1.00;0.80;;;;;;;8.72;100.00;98562.03;5112380;28;20220;-64
2022/11/20 04:10:27;;;;;;;0.90;0.50;;;;;;;8.84;100.00;98547.56;5111855;27;20682;-63
2022/11/20 04:12:54;;;;;;;0.60;0.60;;;;;;;8.75;100.00;98566.91;5111214;28;20208;-58
2022/11/20 04:15:21;;;;;;;0.77;0.67;;;;;;;8.67;100.00;98573.47;5111817;27;20254;-64
2022/11/20 04:17:48;;;;;;;1.70;1.20;;;;;;;8.61;100.00;98584.97;5111716;28;20200;-59
2022/11/20 04:20:14;;;;;;;1.23;1.03;;;;;;;8.49;100.00;98601.09;5111902;27;20200;-63
2022/11/20 04:22:42;;;;;;;1.27;0.80;;;;;;;8.45;100.00;98592.06;5111646;28;20359;-58
2022/11/20 04:25:09;;;;;;;0.73;0.73;;;;;;;8.35;100.00;98592.69;5111585;28;20201;-63
2022/11/20 04:27:36;;;;;;;0.70;0.70;;;;;;;8.59;100.00;98586.81;5111490;28;20197;-58
2022/11/20 04:30:04;;;;;;;1.53;1.43;;;;;;;8.49;100.00;98599.38;5111597;28;20230;-63
2022/11/20 04:32:30;;;;;;;3.40;1.90;;;;;;;8.57;100.00;98591.19;5111714;28;20193;-58
2022/11/20 04:34:57;;;;;;;0.53;0.53;;;;;;;8.51;100.00;98605.16;5111122;28;20237;-58
2022/11/20 04:37:24;;;;;;;1.20;0.70;;;;;;;8.28;100.00;98622.06;5111320;28;20633;-63
2022/11/20 04:39:52;;;;;;;1.20;1.10;;;;;;;8.19;100.00;98642.25;5111249;28;20649;-64
2022/11/20 04:42:31;;;;;;;1.40;0.60;;;;;;;8.09;100.00;98637.00;5111220;28;20272;-58
2022/11/20 04:44:58;;;;;;;3.47;1.70;;;;;;;8.07;100.00;98628.66;5111124;28;20225;-64
2022/11/20 04:47:25;;;;;;;1.63;0.80;;;;;;;8.12;100.00;98626.59;5111397;28;20625;-64
2022/11/20 04:49:51;;;;;;;1.20;0.90;;;;;;;8.00;100.00;98643.53;5111042;28;20582;-57
2022/11/20 04:52:18;;;;;;;1.33;1.20;;;;;;;8.06;100.00;98637.22;5110750;28;20414;-64
2022/11/20 04:54:45;;;;;;;0.70;0.70;;;;;;;8.11;100.00;98630.06;5110978;27;20293;-64
2022/11/20 04:57:15;;;;;;;1.33;1.23;;;;;;;8.05;100.00;98648.31;5111010;28;20570;-58
2022/11/20 04:59:42;;;;;;;0.93;0.93;;;;;;;7.99;100.00;98647.00;5111100;28;20785;-64
2022/11/20 05:02:09;;;;;;;0.33;0.33;;;;;;;8.10;100.00;98620.78;5110931;28;20232;-63
2022/11/20 05:04:36;;;;;;;0.80;0.80;;;;;;;7.96;100.00;98631.94;5110916;28;20269;-63
2022/11/20 05:07:03;;;;;;;1.07;0.83;;;;;;;8.03;100.00;98627.22;5111055;28;20199;-58
2022/11/20 05:09:30;;;;;;;0.97;0.97;;;;;;;8.04;100.00;98631.41;5110764;28;20217;-63
2022/11/20 05:11:57;;;;;;;0.77;0.57;;;;;;;7.97;100.00;98645.47;5110596;28;20204;-58
2022/11/20 05:14:25;;;;;;;0.90;0.83;;;;;;;8.04;100.00;98661.97;5110928;28;20221;-63
2022/11/20 05:16:52;;;;;;;1.63;1.43;;;;;;;7.87;100.00;98658.81;5110713;28;20197;-58
2022/11/20 05:19:19;;;;;;;1.90;1.03;;;;;;;7.85;100.00;98658.13;5110594;28;20217;-63
2022/11/20 05:21:45;;;;;;;2.33;0.77;;;;;;;7.83;100.00;98637.06;5110508;28;20772;-58
2022/11/20 05:24:12;;;;;;;1.80;0.90;;;;;;;7.78;100.00;98643.38;5109799;28;20213;-57
2022/11/20 05:26:39;;;;;;;2.83;1.53;;;;;;;7.88;100.00;98640.09;5110568;28;20198;-63
2022/11/20 05:29:06;;;;;;;0.33;0.33;;;;;;;7.89;100.00;98644.28;5110720;28;20221;-63
2022/11/20 05:31:34;;;;;;;0.67;0.67;;;;;;;7.90;100.00;98643.34;5110535;28;20205;-58
2022/11/20 05:34:01;;;;;;;0.57;0.57;;;;;;;7.82;100.00;98645.59;5110676;28;20225;-63
2022/11/20 05:36:27;;;;;;;0.33;0.33;;;;;;;7.73;100.00;98641.13;5110186;28;20201;-58
2022/11/20 05:38:54;;;;;;;0.67;0.50;;;;;;;7.70;100.00;98656.59;5110147;28;20709;-64
2022/11/20 05:41:22;;;;;;;1.17;0.93;;;;;;;7.66;100.00;98665.38;5110191;28;20272;-63
2022/11/20 05:43:49;;;;;;;0.90;0.90;;;;;;;7.56;100.00;98665.16;5110106;28;20221;-63
2022/11/20 05:46:18;;;;;;;1.17;0.50;;;;;;;7.57;100.00;98664.25;5110227;28;20665;-63
2022/11/20 05:48:47;;;;;;;0.40;0.40;;;;;;;7.52;100.00;98668.81;5110017;28;20221;-64
2022/11/20 05:51:15;;;;;;;0.53;0.53;;;;;;;7.49;100.00;98674.94;5110250;28;20197;-58
2022/11/20 05:53:42;;;;;;;1.47;0.87;;;;;;;7.48;100.00;98677.59;5110385;28;20213;-58
2022/11/20 05:56:14;;;;;;;0.50;0.40;;;;;;;7.51;100.00;98696.94;5110214;28;20265;-63
2022/11/20 05:58:41;;;;;;;1.23;1.10;;;;;;;7.61;100.00;98696.19;5110210;28;20607;-58
2022/11/20 06:01:10;;;;;;;0.60;0.60;;;;;;;7.54;100.00;98701.81;5109973;28;20724;-63
2022/11/20 06:03:38;;;;;;;0.40;0.40;;;;;;;7.43;100.00;98710.94;5110235;28;20216;-63
2022/11/20 06:06:07;;;;;;;1.67;1.53;;;;;;;7.62;100.00;98725.00;5110255;28;20224;-63
2022/11/20 06:08:34;;;;;;;0.70;0.70;;;;;;;7.63;100.00;98737.63;5109751;28;20225;-58
2022/11/20 06:11:04;;;;;;;1.30;0.73;;;;;;;7.64;100.00;98730.81;5109964;28;20198;-57
2022/11/20 06:13:31;;;;;;;0.63;0.63;;;;;;;7.67;100.00;98735.69;5110017;28;20594;-58
2022/11/20 06:15:58;;;;;;;0.80;0.73;;;;;;;7.62;100.00;98745.34;5110153;28;20218;-63
2022/11/20 06:18:27;;;;;;;1.13;1.13;;;;;;;7.73;100.00;98742.91;5109698;28;20266;-58
2022/11/20 06:21:01;;;;;;;0.97;0.83;;;;;;;7.72;100.00;98752.28;5109742;28;20749;-63
2022/11/20 06:23:30;;;;;;;1.73;0.90;;;;;;;7.69;100.00;98741.50;5110022;28;20663;-63
2022/11/20 06:25:57;;;;;;;1.07;0.97;;;;;;;7.71;100.00;98729.50;5109782;28;20208;-57
2022/11/20 06:28:24;;;;;;;1.43;1.33;;;;;;;7.69;100.00;98716.88;5110009;28;20225;-63
2022/11/20 06:30:51;;;;;;;0.77;0.50;;;;;;;7.64;100.00;98697.72;5109857;28;20201;-63
2022/11/20 06:33:17;;;;;;;0.67;0.67;;;;;;;7.51;100.00;98707.09;5109640;28;20240;-58
2022/11/20 06:35:44;;;;;;;0.50;0.50;;;;;;;7.60;100.00;98711.59;5112380;28;20631;-58
2022/11/20 06:38:11;;;;;;;1.53;0.90;;;;;;;7.62;100.00;98705.47;5113661;28;20235;-63
2022/11/20 06:40:41;;;;;;;1.33;0.97;;;;;;;7.61;100.00;98713.19;5113733;28;20626;-63
2022/11/20 06:43:07;;;;;;;0.73;0.73;;;;;;;7.75;100.00;98730.91;5113603;28;20232;-63
2022/11/20 06:45:34;;;;;;;1.10;1.00;;;;;;;7.74;100.00;98736.09;5113514;28;20201;-58
2022/11/20 06:48:01;;;;;;;1.37;0.53;;;;;;;7.71;100.00;98745.56;5113644;28;20243;-63
2022/11/20 06:50:27;;;;;;;0.67;0.47;;;;;;;7.81;100.00;98738.13;5113744;28;20197;-63
2022/11/20 06:52:54;;;;;;;0.80;0.80;;;;;;;7.73;100.00;98748.00;5113479;28;20605;-58
2022/11/20 06:55:21;;;;;;;0.50;0.50;;;;;;;7.85;100.00;98737.03;5113455;28;20739;-58
2022/11/20 06:57:49;;;;;;;1.40;1.07;;;;;;;7.81;100.00;98738.13;5113415;28;20718;-63
2022/11/20 07:00:16;;;;;;;1.80;0.87;;;;;;;7.77;100.00;98725.72;5113402;28;20274;-58
2022/11/20 07:02:43;;;;;;;1.13;1.03;;;;;;;7.68;100.00;98727.16;5113067;28;20221;-63
2022/11/20 07:05:10;;;;;;;0.63;0.63;;;;;;;7.72;100.00;98736.22;5113409;28;20209;-58
2022/11/20 07:07:36;;;;;;;0.70;0.70;;;;;;;7.68;100.00;98735.59;5112868;28;20630;-58
2022/11/20 07:10:04;;;;;;;0.70;0.70;;;;;;;7.75;100.00;98730.91;5113151;28;20213;-63
2022/11/20 07:12:30;;;;;;;0.83;0.83;;;;;;;7.71;100.00;98740.50;5113194;28;20630;-58
2022/11/20 07:14:58;;;;;;;0.47;0.47;;;;;;;7.80;100.00;98759.44;5113061;28;20213;-63
2022/11/20 07:17:25;;;;;;;0.67;0.63;;;;;;;7.58;100.00;98770.19;5112893;28;20194;-58
2022/11/20 07:19:52;;;;;;;1.10;1.10;;;;;;;7.47;100.00;98786.13;5112745;27;20712;-63
2022/11/20 07:22:21;;;;;;;1.27;0.80;;;;;;;7.40;100.00;98787.44;5112464;28;20236;-58
2022/11/20 07:24:48;;;;;;;3.40;1.43;;;;;;;7.20;100.00;98795.53;5112724;28;20217;-63
2022/11/20 07:27:14;;;;;;;1.20;1.10;;;;;;;7.33;100.00;98786.22;5112609;28;20229;-58
2022/11/20 07:29:41;;;;;;;1.30;1.20;;;;;;;7.59;100.00;98786.25;5112896;28;20262;-60
2022/11/20 07:32:09;;;;;;;0.70;0.70;;;;;;;7.76;100.00;98808.06;5112462;28;20194;-58
2022/11/20 07:34:36;;;;;;;1.03;0.97;;;;;;;7.87;100.00;98803.09;5112537;28;20244;-63
2022/11/20 07:37:03;;;;;;;1.10;0.80;;;;;;;7.71;100.00;98790.56;5112503;28;20236;-57
2022/11/20 07:39:30;;;;;;;0.80;0.63;;;;;;;7.88;100.00;98803.00;5112353;28;20240;-63
2022/11/20 07:41:56;;;;;;;1.53;1.00;;;;;;;7.92;100.00;98791.69;5112490;28;20252;-58
2022/11/20 07:44:23;;;;;;;0.63;0.57;;;;;;;8.02;100.00;98783.44;5112386;28;20224;-58
2022/11/20 07:46:50;;;;;;;2.00;1.03;;;;;;;8.05;100.00;98780.69;5111473;27;20208;-63
2022/11/20 07:49:18;;;;;;;1.63;1.43;;;;;;;8.15;100.00;98779.97;5112219;27;20221;-58
2022/11/20 07:51:45;;;;;;;0.60;0.60;;;;;;;8.16;100.00;98789.25;5112242;28;20250;-63
2022/11/20 07:54:11;;;;;;;1.67;1.30;;;;;;;8.32;100.00;98791.59;5112165;28;20232;-63
2022/11/20 07:56:38;;;;;;;0.97;0.87;;;;;;;8.41;100.00;98804.63;5112308;28;20202;-58
2022/11/20 07:59:05;;;;;;;0.70;0.70;;;;;;;8.35;100.00;98816.84;5112000;28;20213;-58
2022/11/20 08:01:31;;;;;;;4.50;1.83;;;;;;;8.39;100.00;98813.19;5111969;28;20197;-58
2022/11/20 08:03:58;;;;;;;1.73;1.37;;;;;;;8.41;100.00;98794.44;5111947;28;20225;-58
2022/11/20 08:06:26;;;;;;;1.17;1.17;;;;;;;8.34;100.00;98787.19;5111861;28;20208;-58
2022/11/20 08:08:53;;;;;;;0.67;0.67;;;;;;;8.42;100.00;98776.50;5111675;28;20794;-58
2022/11/20 08:14:13;;;;;;;1.27;1.07;;;;;;;8.70;100.00;98772.88;5112286;28;20251;-64
2022/11/20 08:16:40;;;;;;;3.17;1.67;;;;;;;8.82;100.00;98769.47;5111632;28;20201;-59
2022/11/20 08:19:07;;;;;;;0.63;0.63;;;;;;;9.04;100.00;98788.34;5111802;27;20221;-58
2022/11/20 08:21:35;;;;;;;1.87;1.00;;;;;;;8.94;100.00;98788.19;5111447;28;20611;-63
2022/11/20 08:24:02;;;;;;;2.77;1.40;;;;;;;9.10;100.00;98775.16;5112000;28;20220;-64
2022/11/20 08:26:29;;;;;;;1.37;1.27;;;;;;;9.25;100.00;98771.53;5111563;28;20205;-64
2022/11/20 08:28:57;;;;;;;1.63;1.23;;;;;;;9.08;100.00;98769.38;5111334;28;20228;-64
2022/11/20 08:31:25;;;;;;;2.00;1.60;;;;;;;9.15;100.00;98778.22;5111564;28;20225;-58
2022/11/20 08:33:52;;;;;;;2.87;1.13;;;;;;;9.15;100.00;98777.41;5111485;28;20294;-64
2022/11/20 08:36:19;;;;;;;2.53;0.90;;;;;;;9.25;100.00;98766.44;5111381;28;20618;-59
2022/11/20 08:38:49;;;;;;;2.57;1.63;;;;;;;9.21;100.00;98782.88;5111411;28;20290;-58
2022/11/20 08:41:26;;;;;;;1.10;0.90;;;;;;;9.46;100.00;98789.59;5111191;28;20197;-58
2022/11/20 08:43:56;;;;;;;2.00;1.23;;;;;;;9.44;100.00;98776.09;5111534;28;20663;-64
2022/11/20 08:46:24;;;;;;;1.20;1.03;;;;;;;9.40;100.00;98784.94;5111165;28;20201;-58
2022/11/20 08:48:51;;;;;;;2.90;1.10;;;;;;;9.42;100.00;98775.41;5111009;28;20218;-58
2022/11/20 08:51:18;;;;;;;5.13;1.33;;;;;;;9.31;100.00;98775.38;5111263;28;20193;-58
2022/11/20 08:53:45;;;;;;;1.07;1.03;;;;;;;9.35;100.00;98783.63;5110825;28;20654;-64
2022/11/20 08:56:14;;;;;;;2.40;1.53;;;;;;;9.12;100.00;98793.72;5110984;28;20201;-64
2022/11/20 08:58:41;;;;;;;2.30;1.20;;;;;;;9.19;100.00;98777.09;5110960;28;20703;-64
2022/11/20 09:01:07;;;;;;;2.03;1.77;;;;;;;9.23;100.00;98773.38;5111067;28;20201;-58
2022/11/20 09:03:34;;;;;;;2.90;1.63;;;;;;;9.13;100.00;98792.00;5110845;28;20228;-58
2022/11/20 09:06:02;;;;;;;3.03;0.80;;;;;;;8.99;100.00;98780.22;5111146;28;20727;-58
2022/11/20 09:08:30;;;;;;;2.03;1.27;;;;;;;8.98;100.00;98778.59;5110958;28;20220;-58
2022/11/20 09:10:58;;;;;;;2.87;1.83;;;;;;;9.01;100.00;98763.06;5110919;28;20193;-58
2022/11/20 09:13:29;;;;;;;1.40;0.87;;;;;;;9.18;100.00;98757.59;5110740;28;20661;-63
2022/11/20 09:15:56;;;;;;;1.90;1.40;;;;;;;9.29;100.00;98752.53;5110705;28;20258;-58
2022/11/20 09:18:23;;;;;;;1.50;1.40;;;;;;;9.35;100.00;98745.34;5110638;28;20228;-58
2022/11/20 09:20:50;;;;;;;1.33;1.20;;;;;;;9.35;100.00;98750.47;5110343;28;20197;-58
2022/11/20 09:23:17;;;;;;;2.87;1.87;;;;;;;9.19;100.00;98741.38;5110459;28;20229;-63
2022/11/20 09:25:44;;;;;;;2.87;1.87;;;;;;;9.11;100.00;98733.44;5110655;28;20722;-64
2022/11/20 09:28:11;;;;;;;0.80;0.70;;;;;;;9.22;100.00;98728.41;5110186;28;20217;-64
2022/11/20 09:30:39;;;;;;;0.70;0.70;;;;;;;9.42;100.00;98731.22;5110627;28;20197;-58
2022/11/20 09:33:06;;;;;;;1.53;1.13;;;;;;;9.61;100.00;98746.00;5110266;28;20761;-63
2022/11/20 09:35:33;;;;;;;2.90;2.00;;;;;;;9.59;100.00;98743.56;5110192;28;20233;-59
2022/11/20 09:38:06;;;;;;;2.13;1.73;;;;;;;9.68;100.00;98737.75;5110363;28;20213;-58
2022/11/20 09:40:35;;;;;;;4.93;1.20;;;;;;;9.65;100.00;98726.97;5110381;28;20228;-58
2022/11/20 09:43:08;;;;;;;4.00;1.50;;;;;;;9.60;100.00;98718.84;5110119;28;20282;-63
2022/11/20 09:45:57;;;;;;;2.30;1.50;;;;;;;9.62;100.00;98717.81;5110431;28;20205;-59
2022/11/20 09:48:43;;;;;;;1.73;1.63;;;;;;;9.23;100.00;98712.16;5109892;28;20224;-64
2022/11/20 09:51:21;;;;;;;0.77;0.77;;;;;;;9.52;100.00;98711.75;5110368;28;20201;-58
2022/11/20 09:54:01;;;;;;;1.80;1.07;;;;;;;9.66;100.00;98710.75;5109946;28;20270;-64
2022/11/20 09:56:29;;;;;;;1.80;1.20;;;;;;;9.75;100.00;98710.88;5110074;28;20205;-64
2022/11/20 09:59:02;;;;;;;1.13;1.03;;;;;;;9.79;100.00;98702.97;5110363;28;20224;-59
2022/11/20 10:01:33;;;;;;;4.13;1.80;;;;;;;9.81;100.00;98701.13;5110115;28;20733;-59
2022/11/20 10:04:04;;;;;;;2.60;1.30;;;;;;;9.88;100.00;98687.75;5110020;28;20241;-64
2022/11/20 10:06:33;;;;;;;1.50;1.27;;;;;;;9.95;100.00;98685.59;5109548;28;20700;-58
2022/11/20 10:09:09;;;;;;;3.37;1.73;;;;;;;9.95;100.00;98690.69;5109257;28;20225;-58
2022/11/20 10:11:47;;;;;;;2.50;1.40;;;;;;;10.10;100.00;98697.16;5113813;28;20205;-58
2022/11/20 10:14:27;;;;;;;2.53;1.57;;;;;;;10.19;100.00;98706.69;5114414;28;20581;-64
2022/11/20 10:17:04;;;;;;;0.80;0.73;;;;;;;10.14;100.00;98713.88;5114336;28;20280;-63
2022/11/20 10:19:47;;;;;;;2.63;0.97;;;;;;;10.20;100.00;98723.63;5114010;28;20217;-58
2022/11/20 10:22:28;;;;;;;4.10;1.73;;;;;;;10.06;100.00;98726.41;5113931;28;20688;-64
2022/11/20 10:24:58;;;;;;;2.30;1.20;;;;;;;10.11;100.00;98734.56;5114123;28;20242;-64
2022/11/20 10:27:56;;;;;;;2.70;1.20;;;;;;;10.16;100.00;98737.56;5112591;28;20292;-59
2022/11/20 10:30:25;;;;;;;2.33;1.13;;;;;;;10.03;100.00;98736.06;5087736;28;20209;-58
2022/11/20 10:32:58;;;;;;;3.30;1.50;;;;;;;10.18;100.00;98745.94;5113416;28;20227;-59
2022/11/20 10:35:33;;;;;;;3.03;1.50;;;;;;;10.27;100.00;98746.19;5113673;28;20201;-64
2022/11/20 10:38:01;;;;;;;2.37;1.97;;;;;;;10.27;100.00;98741.06;5113662;28;20220;-64
2022/11/20 10:40:35;;;;;;;1.57;1.47;;;;;;;10.48;100.00;98742.00;5113631;28;20201;-59
2022/11/20 10:43:08;;;;;;;1.27;1.17;;;;;;;10.38;100.00;98757.22;5113689;28;20233;-64
2022/11/20 10:45:45;;;;;;;1.80;1.33;;;;;;;10.33;100.00;98758.50;5113566;28;20212;-64
2022/11/20 10:48:22;;;;;;;1.67;1.57;;;;;;;10.35;100.00;98746.41;5113415;27;20224;-64
2022/11/20 10:51:08;;;;;;;2.00;1.17;;;;;;;10.41;100.00;98756.16;5113423;28;20669;-64
2022/11/20 10:53:48;;;;;;;2.50;1.30;;;;;;;10.37;100.00;98768.38;5113135;27;20213;-64
2022/11/20 10:56:21;;;;;;;2.53;1.23;;;;;;;10.29;100.00;98765.56;5113195;28;20193;-58
2022/11/20 10:59:03;;;;;;;6.33;1.60;;;;;;;10.28;100.00;98778.47;5112776;28;20282;-58
2022/11/20 11:01:30;;;;;;;2.00;1.77;;;;;;;10.16;100.00;98778.44;5113042;28;20665;-59
2022/11/20 11:03:59;;;;;;;3.07;1.67;;;;;;;9.98;100.00;98790.06;5112996;28;20221;-59
2022/11/20 11:06:34;;;;;;;2.97;1.80;;;;;;;9.79;100.00;98800.00;5112804;28;20204;-59
2022/11/20 11:09:10;;;;;;;2.10;1.37;;;;;;;9.94;100.00;98783.53;5113376;28;20217;-58
2022/11/20 11:11:39;;;;;;;2.00;1.33;;;;;;;9.84;100.00;98782.59;5113015;28;20193;-63
2022/11/20 11:14:07;;;;;;;2.33;1.10;;;;;;;9.78;100.00;98785.63;5113222;28;20259;-58
2022/11/20 11:16:34;;;;;;;1.00;0.90;;;;;;;9.73;100.00;98785.94;5112792;28;20201;-59
2022/11/20 11:19:07;;;;;;;1.73;1.57;;;;;;;9.82;100.00;98779.34;5113348;28;20221;-64
2022/11/20 11:21:34;;;;;;;2.47;1.80;;;;;;;9.82;100.00;98776.78;5111518;28;20685;-64
2022/11/20 11:24:02;;;;;;;1.67;1.10;;;;;;;9.79;100.00;98767.63;5112838;28;20237;-64
2022/11/20 11:26:30;;;;;;;4.53;1.90;;;;;;;9.91;100.00;98758.22;5112833;28;20361;-64
2022/11/20 11:28:58;;;;;;;1.33;1.13;;;;;;;9.90;100.00;98741.28;5112437;28;20223;-58
2022/11/20 11:31:26;;;;;;;1.13;1.03;;;;;;;9.90;100.00;98725.97;5112439;28;20208;-58
2022/11/20 11:33:53;;;;;;;2.50;1.37;;;;;;;9.89;100.00;98729.44;5112340;28;20236;-64
2022/11/20 11:36:24;;;;;;;1.20;1.10;;;;;;;9.82;100.00;98738.50;5112248;28;20205;-59
2022/11/20 11:38:53;;;;;;;1.13;1.03;;;;;;;9.90;100.00;98736.19;5112567;28;20308;-59
2022/11/20 11:41:23;;;;;;;2.03;1.60;;;;;;;9.64;100.00;98720.25;5112168;28;20287;-59